createdAt,value
2017-12-25T00:00:33.260Z,5.15
2017-12-25T00:03:03.126Z,4.90
2017-12-25T00:05:32.377Z,4.28
2017-12-25T00:08:01.623Z,5.03
2017-12-25T00:10:30.887Z,5.90
2017-12-25T00:13:00.126Z,7.05
2017-12-25T00:15:29.379Z,5.22
2017-12-25T00:17:58.647Z,5.45
2017-12-25T00:20:28.677Z,6.28
2017-12-25T00:22:57.938Z,4.60
2017-12-25T00:25:27.224Z,4.70
2017-12-25T00:27:56.472Z,4.03
2017-12-25T00:30:25.712Z,4.35
2017-12-25T00:32:54.966Z,5.10
2017-12-25T00:35:24.202Z,3.90
2017-12-25T00:37:53.439Z,4.35
2017-12-25T00:40:22.691Z,5.12
2017-12-25T00:42:51.976Z,6.12
2017-12-25T00:45:21.220Z,5.43
2017-12-25T00:47:50.483Z,5.12
2017-12-25T00:50:19.731Z,4.05
2017-12-25T00:52:48.967Z,3.90
2017-12-25T00:55:18.227Z,4.40
2017-12-25T00:57:47.473Z,5.20
2017-12-25T01:00:16.714Z,4.50
2017-12-25T01:02:46.669Z,4.85
2017-12-25T01:05:15.918Z,5.10
2017-12-25T01:07:45.181Z,4.03
2017-12-25T01:10:14.449Z,4.85
2017-12-25T01:12:44.473Z,4.95
2017-12-25T01:15:14.472Z,8.50
2017-12-25T01:17:43.733Z,4.87
2017-12-25T01:20:12.986Z,4.93
2017-12-25T01:22:42.231Z,4.95
2017-12-25T01:25:11.493Z,4.70
2017-12-25T01:27:41.494Z,5.80
2017-12-25T01:30:10.762Z,4.65
2017-12-25T01:32:39.993Z,4.80
2017-12-25T01:35:10.014Z,4.50
2017-12-25T01:37:40.051Z,4.18
2017-12-25T01:40:09.327Z,4.25
2017-12-25T01:42:38.579Z,3.90
2017-12-25T01:45:07.808Z,7.82
2017-12-25T01:47:37.072Z,4.75
2017-12-25T01:50:06.306Z,4.35
2017-12-25T01:52:35.553Z,5.10
2017-12-25T01:55:04.548Z,5.25
2017-12-25T02:04:11.383Z,4.50
2017-12-25T02:06:57.946Z,4.47
2017-12-25T02:09:28.317Z,5.82
2017-12-25T02:11:57.300Z,4.80
2017-12-25T02:14:26.237Z,4.82
2017-12-25T02:16:55.486Z,4.43
2017-12-25T02:19:24.741Z,4.45
2017-12-25T02:21:53.995Z,5.75
2017-12-25T02:24:23.275Z,3.90
2017-12-25T02:26:53.274Z,5.53
2017-12-25T02:29:23.319Z,4.60
2017-12-25T02:31:52.568Z,4.55
2017-12-25T02:34:21.828Z,4.75
2017-12-25T02:36:51.824Z,4.53
2017-12-25T02:39:21.069Z,4.70
2017-12-25T02:41:50.366Z,5.00
2017-12-25T02:44:19.567Z,5.05
2017-12-25T02:46:48.863Z,4.72
2017-12-25T02:49:18.130Z,5.35
2017-12-25T02:51:47.387Z,5.07
2017-12-25T02:54:16.659Z,5.00
2017-12-25T02:56:45.891Z,5.53
2017-12-25T02:59:15.150Z,4.37
2017-12-25T03:01:44.411Z,4.70
2017-12-25T03:04:13.679Z,4.80
2017-12-25T03:06:42.948Z,6.37
2017-12-25T03:09:12.188Z,4.00
2017-12-25T03:11:41.437Z,4.43
2017-12-25T03:14:10.681Z,4.87
2017-12-25T03:16:39.927Z,4.57
2017-12-25T03:19:09.835Z,5.90
2017-12-25T03:21:39.076Z,5.18
2017-12-25T03:24:08.331Z,4.95
2017-12-25T03:26:38.100Z,4.32
2017-12-25T03:29:07.383Z,4.93
2017-12-25T03:31:36.631Z,5.05
2017-12-25T03:34:05.864Z,5.30
2017-12-25T03:36:35.127Z,4.45
2017-12-25T03:39:04.437Z,4.93
2017-12-25T03:41:33.699Z,5.40
2017-12-25T03:44:02.955Z,5.30
2017-12-25T03:46:32.903Z,5.82
2017-12-25T03:49:02.167Z,7.12
2017-12-25T03:51:31.432Z,5.05
2017-12-25T03:54:00.686Z,6.18
2017-12-25T03:56:29.928Z,5.03
2017-12-25T03:58:59.175Z,5.37
2017-12-25T04:01:28.444Z,5.22
2017-12-25T04:03:57.691Z,5.53
2017-12-25T04:06:26.983Z,5.65
2017-12-25T04:08:56.196Z,6.47
2017-12-25T04:11:25.443Z,6.10
2017-12-25T04:13:54.754Z,5.35
2017-12-25T04:16:23.988Z,5.20
2017-12-25T04:18:53.213Z,6.03
2017-12-25T04:21:23.233Z,5.22
2017-12-25T04:23:52.486Z,6.43
2017-12-25T04:26:21.733Z,7.82
2017-12-25T04:28:51.757Z,6.50
2017-12-25T04:31:21.009Z,7.03
2017-12-25T04:33:50.285Z,8.68
2017-12-25T04:36:19.521Z,7.97
2017-12-25T04:38:48.835Z,7.10
2017-12-25T04:41:18.062Z,8.65
2017-12-25T04:43:47.297Z,8.80
2017-12-25T04:46:16.565Z,7.82
2017-12-25T04:48:45.810Z,6.95
2017-12-25T04:51:15.066Z,7.70
2017-12-25T04:53:44.322Z,6.50
2017-12-25T04:56:13.585Z,6.80
2017-12-25T04:58:42.836Z,6.93
2017-12-25T05:01:12.115Z,8.13
2017-12-25T05:03:41.374Z,6.87
2017-12-25T05:06:11.547Z,8.57
2017-12-25T05:08:40.815Z,7.37
2017-12-25T05:11:10.055Z,7.90
2017-12-25T05:13:40.094Z,9.88
2017-12-25T05:16:09.344Z,7.07
2017-12-25T05:18:38.559Z,8.13
2017-12-25T05:21:07.862Z,7.72
2017-12-25T05:23:37.867Z,8.13
2017-12-25T05:26:07.609Z,7.45
2017-12-25T05:28:37.615Z,7.25
2017-12-25T05:31:07.634Z,8.30
2017-12-25T05:33:37.653Z,8.10
2017-12-25T05:36:07.659Z,8.23
2017-12-25T05:38:37.678Z,8.73
2017-12-25T05:41:07.684Z,8.00
2017-12-25T05:43:36.946Z,8.43
2017-12-25T05:46:06.173Z,9.65
2017-12-25T05:48:35.431Z,6.95
2017-12-25T05:51:05.666Z,9.18
2017-12-25T05:53:34.919Z,7.30
2017-12-25T05:56:04.165Z,7.75
2017-12-25T05:58:34.196Z,8.05
2017-12-25T06:01:03.474Z,8.35
2017-12-25T06:03:32.712Z,6.93
2017-12-25T06:06:01.958Z,6.87
2017-12-25T06:08:31.362Z,7.20
2017-12-25T06:11:00.600Z,11.15
2017-12-25T06:13:29.855Z,8.88
2017-12-25T06:15:59.090Z,8.40
2017-12-25T06:18:28.333Z,6.82
2017-12-25T06:20:58.354Z,9.15
2017-12-25T06:23:28.418Z,7.40
2017-12-25T06:25:58.411Z,7.35
2017-12-25T06:28:27.638Z,8.77
2017-12-25T06:30:56.879Z,9.20
2017-12-25T06:33:26.886Z,14.45
2017-12-25T06:35:56.910Z,10.27
2017-12-25T06:38:26.924Z,8.88
2017-12-25T06:40:56.153Z,9.88
2017-12-25T06:43:25.427Z,9.10
2017-12-25T06:45:54.663Z,6.97
2017-12-25T06:48:23.906Z,9.35
2017-12-25T06:50:54.086Z,6.93
2017-12-25T06:53:23.312Z,8.25
2017-12-25T06:55:52.567Z,6.25
2017-12-25T06:58:21.819Z,7.78
2017-12-25T07:00:51.175Z,9.27
2017-12-25T07:03:20.407Z,7.90
2017-12-25T07:05:49.649Z,9.20
2017-12-25T07:08:19.670Z,7.97
2017-12-25T07:10:48.911Z,7.75
2017-12-25T07:13:18.166Z,7.65
2017-12-25T07:15:48.179Z,7.65
2017-12-25T07:18:18.164Z,8.75
2017-12-25T07:20:47.435Z,9.88
2017-12-25T07:23:16.691Z,7.90
2017-12-25T07:25:46.707Z,9.98
2017-12-25T07:28:15.955Z,7.78
2017-12-25T07:30:45.204Z,9.55
2017-12-25T07:33:14.445Z,8.23
2017-12-25T07:35:43.702Z,9.38
2017-12-25T07:38:13.828Z,7.78
2017-12-25T07:40:43.074Z,7.85
2017-12-25T07:43:12.362Z,9.90
2017-12-25T07:45:41.625Z,10.77
2017-12-25T07:48:11.651Z,8.73
2017-12-25T07:50:41.666Z,8.07
2017-12-25T07:53:11.678Z,9.60
2017-12-25T07:55:40.947Z,9.73
2017-12-25T07:58:10.193Z,9.25
2017-12-25T08:00:39.466Z,10.13
2017-12-25T08:03:09.495Z,9.10
2017-12-25T08:05:38.753Z,14.52
2017-12-25T08:08:08.009Z,9.95
2017-12-25T08:10:37.267Z,14.43
2017-12-25T08:13:06.515Z,10.57
2017-12-25T08:15:35.773Z,9.73
2017-12-25T08:18:05.022Z,10.73
2017-12-25T08:20:34.289Z,10.88
2017-12-25T08:23:04.290Z,9.10
2017-12-25T08:25:33.555Z,11.55
2017-12-25T08:28:02.805Z,12.23
2017-12-25T08:30:32.061Z,11.95
2017-12-25T08:33:01.332Z,12.30
2017-12-25T08:35:30.583Z,10.98
2017-12-25T08:37:59.847Z,11.63
2017-12-25T08:40:29.104Z,9.95
2017-12-25T08:42:58.362Z,13.18
2017-12-25T08:45:27.623Z,10.85
2017-12-25T08:47:56.883Z,10.52
2017-12-25T08:50:26.144Z,11.02
2017-12-25T08:52:55.391Z,10.18
2017-12-25T08:55:25.456Z,13.90
2017-12-25T08:57:54.722Z,12.63
2017-12-25T09:00:23.966Z,12.23
2017-12-25T09:02:53.231Z,10.07
2017-12-25T09:05:22.508Z,10.70
2017-12-25T09:07:51.757Z,11.65
2017-12-25T09:10:21.006Z,11.85
2017-12-25T09:12:51.064Z,12.63
2017-12-25T09:15:20.317Z,10.13
2017-12-25T09:17:49.588Z,16.12
2017-12-25T09:20:18.858Z,13.18
2017-12-25T09:22:48.127Z,10.65
2017-12-25T09:25:18.184Z,11.27
2017-12-25T09:27:47.569Z,11.18
2017-12-25T09:30:16.827Z,10.85
2017-12-25T09:32:46.081Z,10.80
2017-12-25T09:35:15.331Z,12.60
2017-12-25T09:37:45.375Z,10.80
2017-12-25T09:40:14.619Z,11.07
2017-12-25T09:42:43.862Z,11.57
2017-12-25T09:45:13.127Z,13.48
2017-12-25T09:47:42.359Z,13.35
2017-12-25T09:50:11.630Z,12.85
2017-12-25T09:52:40.873Z,11.02
2017-12-25T09:55:10.135Z,12.30
2017-12-25T09:57:39.381Z,13.95
2017-12-25T10:00:08.619Z,13.25
2017-12-25T10:02:37.899Z,10.85
2017-12-25T10:05:07.873Z,10.90
2017-12-25T10:07:37.160Z,9.45
2017-12-25T10:10:06.416Z,9.95
2017-12-25T10:12:35.660Z,10.48
2017-12-25T10:15:05.670Z,12.27
2017-12-25T10:17:35.693Z,10.90
2017-12-25T10:20:04.953Z,10.00
2017-12-25T10:22:34.205Z,10.98
2017-12-25T10:25:03.446Z,8.95
2017-12-25T10:27:32.724Z,8.45
2017-12-25T10:30:01.950Z,9.75
2017-12-25T10:32:31.208Z,7.43
2017-12-25T10:35:00.441Z,8.82
2017-12-25T10:37:29.672Z,11.50
2017-12-25T10:39:59.708Z,8.65
2017-12-25T10:42:29.756Z,8.85
2017-12-25T10:44:59.023Z,10.85
2017-12-25T10:47:28.282Z,7.62
2017-12-25T10:49:57.526Z,9.02
2017-12-25T10:52:27.558Z,11.68
2017-12-25T10:54:56.829Z,10.25
2017-12-25T10:57:26.847Z,9.43
2017-12-25T10:59:56.883Z,8.68
2017-12-25T11:05:31.804Z,8.73
2017-12-25T11:08:01.055Z,10.48
2017-12-25T11:10:30.284Z,9.30
2017-12-25T11:12:59.556Z,10.85
2017-12-25T11:15:28.807Z,11.82
2017-12-25T11:17:58.039Z,9.05
2017-12-25T11:20:27.335Z,10.68
2017-12-25T11:22:56.585Z,10.73
2017-12-25T11:25:25.819Z,9.55
2017-12-25T11:27:55.065Z,8.52
2017-12-25T11:30:24.318Z,10.23
2017-12-25T11:32:53.583Z,9.70
2017-12-25T11:35:22.822Z,12.18
2017-12-25T11:37:52.074Z,9.10
2017-12-25T11:40:21.326Z,11.43
2017-12-25T11:42:50.597Z,10.88
2017-12-25T11:45:19.832Z,10.35
2017-12-25T11:47:49.082Z,11.23
2017-12-25T11:50:18.351Z,12.27
2017-12-25T11:52:47.610Z,14.13
2017-12-25T11:55:16.871Z,11.32
2017-12-25T11:57:46.113Z,10.90
2017-12-25T12:00:15.374Z,11.60
2017-12-25T12:02:44.637Z,11.65
2017-12-25T12:05:13.892Z,9.57
2017-12-25T12:07:43.919Z,11.43
2017-12-25T12:10:13.213Z,10.38
2017-12-25T12:12:42.532Z,12.43
2017-12-25T12:15:11.779Z,11.27
2017-12-25T12:17:41.050Z,13.48
2017-12-25T12:20:10.287Z,11.00
2017-12-25T12:22:39.560Z,11.77
2017-12-25T12:25:08.822Z,10.82
2017-12-25T12:27:38.142Z,9.73
2017-12-25T12:30:07.391Z,10.65
2017-12-25T12:32:36.642Z,15.35
2017-12-25T12:35:05.904Z,13.38
2017-12-25T12:37:35.143Z,12.48
2017-12-25T12:40:04.409Z,12.43
2017-12-25T12:42:33.646Z,11.85
2017-12-25T12:45:03.016Z,10.27
2017-12-25T12:47:32.342Z,12.82
2017-12-25T12:50:01.596Z,13.30
2017-12-25T12:52:30.891Z,13.88
2017-12-25T12:55:00.159Z,12.93
2017-12-25T12:57:29.409Z,13.02
2017-12-25T12:59:59.452Z,13.55
2017-12-25T13:02:28.689Z,10.13
2017-12-25T13:04:57.957Z,12.35
2017-12-25T13:07:27.225Z,13.60
2017-12-25T13:09:57.235Z,11.50
2017-12-25T13:12:26.489Z,11.90
2017-12-25T13:14:55.737Z,11.60
2017-12-25T13:17:25.772Z,10.60
2017-12-25T13:19:55.020Z,14.07
2017-12-25T13:22:24.274Z,11.52
2017-12-25T13:24:53.534Z,11.38
2017-12-25T13:27:22.780Z,15.60
2017-12-25T13:29:52.024Z,10.55
2017-12-25T13:32:21.313Z,13.30
2017-12-25T13:34:50.556Z,11.45
2017-12-25T13:37:20.591Z,15.70
2017-12-25T13:39:49.845Z,11.48
2017-12-25T13:42:19.111Z,9.02
2017-12-25T13:44:48.379Z,12.52
2017-12-25T13:47:18.552Z,10.25
2017-12-25T13:49:47.783Z,10.65
2017-12-25T13:52:17.042Z,16.77
2017-12-25T13:54:46.311Z,11.50
2017-12-25T13:57:15.579Z,14.77
2017-12-25T13:59:45.601Z,12.00
2017-12-25T14:02:15.613Z,15.13
2017-12-25T14:04:45.642Z,13.20
2017-12-25T14:07:15.676Z,9.90
2017-12-25T14:09:44.928Z,10.02
2017-12-25T14:12:14.187Z,11.52
2017-12-25T14:14:43.465Z,11.27
2017-12-25T14:17:13.371Z,13.38
2017-12-25T14:19:42.630Z,11.43
2017-12-25T14:22:11.881Z,10.75
2017-12-25T14:24:41.461Z,13.13
2017-12-25T14:27:10.709Z,10.80
2017-12-25T14:29:39.939Z,12.00
2017-12-25T14:32:09.302Z,12.77
2017-12-25T14:34:38.546Z,12.20
2017-12-25T14:37:07.818Z,13.95
2017-12-25T14:39:37.058Z,11.23
2017-12-25T14:42:06.361Z,10.23
2017-12-25T14:44:35.625Z,14.77
2017-12-25T14:47:04.850Z,13.32
2017-12-25T14:49:34.362Z,12.45
2017-12-25T14:52:03.664Z,10.73
2017-12-25T14:54:33.685Z,12.65
2017-12-25T14:57:03.734Z,12.32
2017-12-25T14:59:32.993Z,11.05
2017-12-25T15:02:02.244Z,11.88
2017-12-25T15:04:31.502Z,10.90
2017-12-25T15:07:01.538Z,14.00
2017-12-25T15:09:30.788Z,12.27
2017-12-25T15:12:00.029Z,10.40
2017-12-25T15:14:29.289Z,15.70
2017-12-25T15:16:58.563Z,11.85
2017-12-25T15:19:27.816Z,10.80
2017-12-25T15:21:57.949Z,11.20
2017-12-25T15:24:27.207Z,12.25
2017-12-25T15:26:56.446Z,12.40
2017-12-25T15:29:25.723Z,10.60
2017-12-25T15:31:55.086Z,12.90
2017-12-25T15:34:24.349Z,12.00
2017-12-25T15:36:53.614Z,13.88
2017-12-25T15:39:22.867Z,12.82
2017-12-25T15:41:52.239Z,12.00
2017-12-25T15:44:23.110Z,17.27
2017-12-25T15:46:52.374Z,18.17
2017-12-25T15:49:22.396Z,13.30
2017-12-25T15:51:51.665Z,18.23
2017-12-25T15:54:20.926Z,13.23
2017-12-25T15:56:50.193Z,15.38
2017-12-25T15:59:19.450Z,16.62
2017-12-25T16:01:48.704Z,14.87
2017-12-25T16:04:17.954Z,15.23
2017-12-25T16:06:47.215Z,13.15
2017-12-25T16:09:16.492Z,14.38
2017-12-25T16:11:45.762Z,12.95
2017-12-25T16:14:15.056Z,20.55
2017-12-25T16:16:44.314Z,21.83
2017-12-25T16:19:13.563Z,22.15
2017-12-25T16:21:43.630Z,19.45
2017-12-25T16:24:12.882Z,19.95
2017-12-25T16:26:42.154Z,19.25
2017-12-25T16:29:11.463Z,18.23
2017-12-25T16:31:40.682Z,20.02
2017-12-25T16:34:09.956Z,20.52
2017-12-25T16:36:39.195Z,17.70
2017-12-25T16:39:08.464Z,17.48
2017-12-25T16:41:37.713Z,19.90
2017-12-25T16:44:06.962Z,15.70
2017-12-25T16:46:36.251Z,19.35
2017-12-25T16:49:05.496Z,14.30
2017-12-25T16:51:35.525Z,16.23
2017-12-25T16:54:05.116Z,16.58
2017-12-25T16:56:35.154Z,18.12
2017-12-25T16:59:04.413Z,22.27
2017-12-25T17:01:33.666Z,23.17
2017-12-25T17:04:02.935Z,28.00
2017-12-25T17:06:32.195Z,19.08
2017-12-25T17:09:01.456Z,26.50
2017-12-25T17:11:30.744Z,26.77
2017-12-25T17:14:00.030Z,27.05
2017-12-25T17:16:30.061Z,25.48
2017-12-25T17:18:59.320Z,25.08
2017-12-25T17:21:28.595Z,24.90
2017-12-25T17:23:57.856Z,22.87
2017-12-25T17:26:27.124Z,27.35
2017-12-25T17:28:57.175Z,22.73
2017-12-25T17:31:26.420Z,22.67
2017-12-25T17:33:55.989Z,24.12
2017-12-25T17:36:25.260Z,25.20
2017-12-25T17:38:55.291Z,19.33
2017-12-25T17:41:25.278Z,21.48
2017-12-25T17:43:54.546Z,21.02
2017-12-25T17:46:23.817Z,27.35
2017-12-25T17:48:53.072Z,23.90
2017-12-25T17:51:22.370Z,26.00
2017-12-25T17:53:51.705Z,22.40
2017-12-25T17:56:20.932Z,20.90
2017-12-25T17:58:50.186Z,20.60
2017-12-25T18:01:19.466Z,19.45
2017-12-25T18:03:48.710Z,21.12
2017-12-25T18:06:18.734Z,24.90
2017-12-25T18:08:47.981Z,21.77
2017-12-25T18:11:17.258Z,14.95
2017-12-25T18:13:46.506Z,17.87
2017-12-25T18:16:15.813Z,20.33
2017-12-25T18:18:45.064Z,26.73
2017-12-25T18:21:14.323Z,22.33
2017-12-25T18:23:44.337Z,27.98
2017-12-25T18:26:13.591Z,24.90
2017-12-25T18:28:42.840Z,23.90
2017-12-25T18:31:12.133Z,23.95
2017-12-25T18:33:41.413Z,25.33
2017-12-25T18:36:10.635Z,27.70
2017-12-25T18:38:39.890Z,23.20
2017-12-25T18:41:09.141Z,22.37
2017-12-25T18:43:38.414Z,24.65
2017-12-25T18:46:08.433Z,25.30
2017-12-25T18:48:37.703Z,24.23
2017-12-25T18:51:06.950Z,28.80
2017-12-25T18:53:36.233Z,23.30
2017-12-25T18:56:05.503Z,28.73
2017-12-25T18:58:34.744Z,34.00
2017-12-25T19:01:04.005Z,30.58
2017-12-25T19:03:33.308Z,29.02
2017-12-25T19:06:03.134Z,26.02
2017-12-25T19:08:32.373Z,27.13
2017-12-25T19:11:01.632Z,29.90
2017-12-25T19:13:30.922Z,22.67
2017-12-25T19:16:00.162Z,24.12
2017-12-25T19:18:29.414Z,21.77
2017-12-25T19:20:58.676Z,21.08
2017-12-25T19:23:27.917Z,28.45
2017-12-25T19:25:57.193Z,23.67
2017-12-25T19:28:26.450Z,21.87
2017-12-25T19:30:55.716Z,21.33
2017-12-25T19:33:24.992Z,27.48
2017-12-25T19:35:54.237Z,24.50
2017-12-25T19:38:24.233Z,23.02
2017-12-25T19:40:53.479Z,24.65
2017-12-25T19:43:22.756Z,30.67
2017-12-25T19:45:52.023Z,33.08
2017-12-25T19:48:21.296Z,30.15
2017-12-25T19:50:50.556Z,37.38
2017-12-25T19:53:19.872Z,35.60
2017-12-25T19:55:49.120Z,31.80
2017-12-25T19:58:18.372Z,35.67
2017-12-25T20:00:47.642Z,29.87
2017-12-25T20:03:16.889Z,30.60
2017-12-25T20:05:46.956Z,28.08
2017-12-25T20:08:16.201Z,41.23
2017-12-25T20:10:45.477Z,30.02
2017-12-25T20:13:14.744Z,27.05
2017-12-25T20:15:44.000Z,35.00
2017-12-25T20:18:13.274Z,33.38
2017-12-25T20:20:42.596Z,37.25
2017-12-25T20:23:12.744Z,43.20
2017-12-25T20:25:42.139Z,34.15
2017-12-25T20:28:11.391Z,32.03
2017-12-25T20:30:40.675Z,29.23
2017-12-25T20:33:09.922Z,32.28
2017-12-25T20:35:40.025Z,23.90
2017-12-25T20:38:09.299Z,29.55
2017-12-25T20:40:38.550Z,29.65
2017-12-25T20:43:07.849Z,28.60
2017-12-25T20:45:37.103Z,22.77
2017-12-25T20:48:07.138Z,26.33
2017-12-25T20:50:36.391Z,27.95
2017-12-25T20:53:05.651Z,32.92
2017-12-25T20:55:34.932Z,21.87
2017-12-25T20:58:04.189Z,20.70
2017-12-25T21:00:33.460Z,29.70
2017-12-25T21:03:02.738Z,31.83
2017-12-25T21:05:31.991Z,26.92
2017-12-25T21:08:01.271Z,26.17
2017-12-25T21:10:30.543Z,30.27
2017-12-25T21:12:59.803Z,24.65
2017-12-25T21:15:29.851Z,23.62
2017-12-25T21:17:59.114Z,33.03
2017-12-25T21:20:29.149Z,23.40
2017-12-25T21:22:59.172Z,23.98
2017-12-25T21:25:29.199Z,23.95
2017-12-25T21:27:58.443Z,19.80
2017-12-25T21:30:27.700Z,29.98
2017-12-25T21:32:56.967Z,23.90
2017-12-25T21:35:26.213Z,25.23
2017-12-25T21:37:55.471Z,25.80
2017-12-25T21:40:24.760Z,29.33
2017-12-25T21:42:54.024Z,24.98
2017-12-25T21:45:23.318Z,29.00
2017-12-25T21:47:52.580Z,25.42
2017-12-25T21:50:22.636Z,27.65
2017-12-25T21:52:51.927Z,23.67
2017-12-25T21:55:21.174Z,24.12
2017-12-25T21:57:50.462Z,26.77
2017-12-25T22:00:19.718Z,30.10
2017-12-25T22:02:48.969Z,23.87
2017-12-25T22:05:18.250Z,25.33
2017-12-25T22:07:47.513Z,32.40
2017-12-25T22:10:16.761Z,36.40
2017-12-25T22:12:46.024Z,29.23
2017-12-25T22:15:15.285Z,27.30
2017-12-25T22:17:45.329Z,29.05
2017-12-25T22:20:14.582Z,28.75
2017-12-25T22:22:43.876Z,30.67
2017-12-25T22:25:13.142Z,34.28
2017-12-25T22:27:43.200Z,33.70
2017-12-25T22:30:12.484Z,39.97
2017-12-25T22:32:41.752Z,28.45
2017-12-25T22:35:11.031Z,28.67
2017-12-25T22:37:40.308Z,35.45
2017-12-25T22:40:09.552Z,33.00
2017-12-25T22:42:38.851Z,35.35
2017-12-25T22:45:08.126Z,31.33
2017-12-25T22:47:38.146Z,29.95
2017-12-25T22:50:07.394Z,32.53
2017-12-25T22:52:36.671Z,36.97
2017-12-25T22:55:05.946Z,35.70
2017-12-25T22:57:35.213Z,34.03
2017-12-25T23:00:04.523Z,32.25
2017-12-25T23:02:33.774Z,35.25
2017-12-25T23:05:03.041Z,32.88
2017-12-25T23:07:32.353Z,25.55
2017-12-25T23:10:01.629Z,29.73
2017-12-25T23:12:30.875Z,29.83
2017-12-25T23:15:00.145Z,33.13
2017-12-25T23:17:29.440Z,36.60
2017-12-25T23:19:58.711Z,35.30
2017-12-25T23:22:27.986Z,29.85
2017-12-25T23:24:57.265Z,38.55
2017-12-25T23:27:26.522Z,34.75
2017-12-25T23:29:55.778Z,35.58
2017-12-25T23:32:25.048Z,29.70
2017-12-25T23:34:54.306Z,30.12
2017-12-25T23:37:23.550Z,32.65
2017-12-25T23:39:52.826Z,25.50
2017-12-25T23:42:22.844Z,25.02
2017-12-25T23:44:52.140Z,23.42
2017-12-25T23:47:22.893Z,31.75
2017-12-25T23:49:52.213Z,23.20
2017-12-25T23:52:21.446Z,26.45
2017-12-25T23:54:50.720Z,27.10
2017-12-25T23:57:20.022Z,21.35
2017-12-25T23:59:49.244Z,22.62
